^^
Saratoga-Weather Station Historical Data
Daily Summary for February 7, 2021 Units:  Metric    English   Both
Daily Weekly Monthly Yearly Custom
  High: Low: Average:
Temperature: 1.6 °C 0.1 °C 0.9 °C
Dew Point: 0.1 °C -0.9 °C -0.4 °C
Humidity: 95% 88% 91%
Wind Speed: 6.4km/h 0km/h 2km/h
Wind Gust: 12.9km/h - -
Wind- - West
Pressure: 1014.9 hPa 1014.2 hPa -
Precipitation: 0.0 mm    
Historical Graphs
 
 
Tabular Data for February 7, 2021
Time Temperature Dew Point Pressure Wind Wind Speed Wind Gust Humidity Rainfall Rate (Hourly) solar
00:04 1.6 °C 0 °C 1014.6 hPa WSW 1.4 km/h 4.8 km/h 89% 0.0 mm 0 W/m2
00:09 1.6 °C 0 °C 1014.6 hPa WSW 4.7 km/h 4.8 km/h 89% 0.0 mm 0 W/m2
00:14 1.5 °C -0.1 °C 1014.6 hPa WSW 1.4 km/h 3.2 km/h 89% 0.0 mm 0 W/m2
00:19 1.4 °C -0.2 °C 1014.6 hPa WSW 1.4 km/h 1.6 km/h 89% 0.0 mm 0 W/m2
00:24 1.4 °C -0.1 °C 1014.6 hPa Calm   3.2 km/h 90% 0.0 mm 0 W/m2
00:29 1.3 °C -0.2 °C 1014.6 hPa Calm   3.2 km/h 90% 0.0 mm 0 W/m2
00:34 1.2 °C -0.3 °C 1014.6 hPa WSW 1.4 km/h 3.2 km/h 90% 0.0 mm 0 W/m2
00:39 1.2 °C -0.3 °C 1014.6 hPa SW 1.4 km/h 3.2 km/h 90% 0.0 mm 0 W/m2
00:44 1.2 °C -0.3 °C 1014.6 hPa SW 3.2 km/h 3.2 km/h 90% 0.0 mm 0 W/m2
00:49 1.2 °C -0.3 °C 1014.6 hPa Calm     90% 0.0 mm 0 W/m2
00:54 1.2 °C -0.1 °C 1014.6 hPa Calm     91% 0.0 mm 0 W/m2
00:59 1.2 °C -0.1 °C 1014.6 hPa Calm     91% 0.0 mm 0 W/m2
01:04 1.2 °C -0.1 °C 1014.6 hPa Calm     91% 0.0 mm 0 W/m2
01:09 1.2 °C 0 °C 1014.6 hPa Calm     92% 0.0 mm 0 W/m2
01:14 1.1 °C -0.1 °C 1014.6 hPa Calm     92% 0.0 mm 0 W/m2
01:20 1.1 °C -0.1 °C 1014.6 hPa Calm     92% 0.0 mm 0 W/m2
01:25 1.1 °C 0.1 °C 1014.6 hPa WSW 3.2 km/h 3.2 km/h 93% 0.0 mm 0 W/m2
01:30 1.1 °C 0.1 °C 1014.6 hPa WNW 4.7 km/h 4.8 km/h 93% 0.0 mm 0 W/m2
01:35 1.1 °C 0.1 °C 1014.6 hPa WNW 1.4 km/h 1.6 km/h 93% 0.0 mm 0 W/m2
01:40 1.1 °C 0.1 °C 1014.6 hPa WNW 1.4 km/h 3.2 km/h 93% 0.0 mm 0 W/m2
01:45 1.1 °C 0.1 °C 1014.6 hPa WNW 1.4 km/h 1.6 km/h 93% 0.0 mm 0 W/m2
01:50 1.1 °C 0.1 °C 1014.6 hPa WNW 3.2 km/h 6.4 km/h 93% 0.0 mm 0 W/m2
01:55 1.2 °C -0.1 °C 1014.6 hPa West 4.7 km/h 9.7 km/h 91% 0.0 mm 0 W/m2
02:00 1.3 °C -0.3 °C 1014.6 hPa West 3.2 km/h 9.7 km/h 89% 0.0 mm 0 W/m2
02:05 1.4 °C -0.4 °C 1014.6 hPa West 3.2 km/h 6.4 km/h 88% 0.0 mm 0 W/m2
02:10 1.4 °C -0.4 °C 1014.6 hPa West 3.2 km/h 6.4 km/h 88% 0.0 mm 0 W/m2
02:15 1.4 °C -0.4 °C 1014.6 hPa WSW 1.4 km/h 4.8 km/h 88% 0.0 mm 0 W/m2
02:20 1.4 °C -0.4 °C 1014.6 hPa WSW 3.2 km/h 6.4 km/h 88% 0.0 mm 0 W/m2
02:25 1.3 °C -0.5 °C 1014.6 hPa WNW 4.7 km/h 4.8 km/h 88% 0.0 mm 0 W/m2
02:30 1.3 °C -0.5 °C 1014.6 hPa WNW 1.4 km/h 6.4 km/h 88% 0.0 mm 0 W/m2
02:35 1.3 °C -0.5 °C 1014.6 hPa WNW 1.4 km/h 3.2 km/h 88% 0.0 mm 0 W/m2
02:40 1.2 °C -0.6 °C 1014.6 hPa Calm   1.6 km/h 88% 0.0 mm 0 W/m2
02:45 1.1 °C -0.5 °C 1014.6 hPa Calm   3.2 km/h 89% 0.0 mm 0 W/m2
02:50 1.1 °C -0.5 °C 1014.6 hPa Calm     89% 0.0 mm 0 W/m2
02:55 0.9 °C -0.7 °C 1014.6 hPa Calm   1.6 km/h 89% 0.0 mm 0 W/m2
03:00 0.8 °C -0.8 °C 1014.6 hPa Calm   1.6 km/h 89% 0.0 mm 0 W/m2
03:05 0.6 °C -0.9 °C 1014.9 hPa West 1.4 km/h 4.8 km/h 90% 0.0 mm 0 W/m2
03:10 0.6 °C -0.9 °C 1014.6 hPa West 3.2 km/h 4.8 km/h 90% 0.0 mm 0 W/m2
03:15 0.6 °C -0.7 °C 1014.6 hPa WSW 4.7 km/h 6.4 km/h 91% 0.0 mm 0 W/m2
03:20 0.8 °C -0.5 °C 1014.9 hPa WSW 4.7 km/h 4.8 km/h 91% 0.0 mm 0 W/m2
03:25 1.1 °C -0.2 °C 1014.6 hPa WSW 3.2 km/h 9.7 km/h 91% 0.0 mm 0 W/m2
03:30 1.2 °C -0.3 °C 1014.9 hPa WSW 1.4 km/h 4.8 km/h 90% 0.0 mm 0 W/m2
03:35 1.2 °C -0.3 °C 1014.6 hPa WNW 3.2 km/h 4.8 km/h 90% 0.0 mm 0 W/m2
03:40 1.3 °C -0.2 °C 1014.6 hPa WNW 1.4 km/h 6.4 km/h 90% 0.0 mm 0 W/m2
03:45 1.3 °C 0 °C 1014.6 hPa West 3.2 km/h 6.4 km/h 91% 0.0 mm 0 W/m2
03:50 1.3 °C 0 °C 1014.6 hPa WNW 3.2 km/h 4.8 km/h 91% 0.0 mm 0 W/m2
03:55 1.3 °C 0 °C 1014.6 hPa WNW 1.4 km/h 4.8 km/h 91% 0.0 mm 0 W/m2
04:01 1.2 °C -0.1 °C 1014.6 hPa WNW 1.4 km/h 3.2 km/h 91% 0.0 mm 0 W/m2
04:06 1.1 °C -0.2 °C 1014.6 hPa West 3.2 km/h 6.4 km/h 91% 0.0 mm 0 W/m2
04:11 1.2 °C -0.1 °C 1014.6 hPa WNW 6.4 km/h 9.7 km/h 91% 0.0 mm 0 W/m2
04:16 1.2 °C 0 °C 1014.6 hPa WNW 1.4 km/h 6.4 km/h 92% 0.0 mm 0 W/m2
04:21 1.2 °C 0 °C 1014.6 hPa WSW 3.2 km/h 8 km/h 92% 0.0 mm 0 W/m2
04:26 1.2 °C 0 °C 1014.6 hPa West 4.7 km/h 4.8 km/h 92% 0.0 mm 0 W/m2
04:31 1.2 °C 0 °C 1014.6 hPa WNW 1.4 km/h 8 km/h 92% 0.0 mm 0 W/m2
04:36 1.1 °C -0.1 °C 1014.6 hPa West 1.4 km/h 9.7 km/h 92% 0.0 mm 0 W/m2
04:41 1.1 °C -0.1 °C 1014.6 hPa WNW 3.2 km/h 6.4 km/h 92% 0.0 mm 0 W/m2
04:46 1 °C -0.2 °C 1014.6 hPa WSW 3.2 km/h 6.4 km/h 92% 0.0 mm 0 W/m2
04:51 0.9 °C -0.3 °C 1014.6 hPa West 3.2 km/h 4.8 km/h 92% 0.0 mm 0 W/m2
04:56 0.9 °C -0.3 °C 1014.6 hPa West 1.4 km/h 6.4 km/h 92% 0.0 mm 0 W/m2
05:01 0.8 °C -0.4 °C 1014.6 hPa NW 3.2 km/h 3.2 km/h 92% 0.0 mm 0 W/m2
05:06 0.8 °C -0.4 °C 1014.6 hPa West 3.2 km/h 6.4 km/h 92% 0.0 mm 0 W/m2
05:11 0.8 °C -0.4 °C 1014.6 hPa WSW 6.4 km/h 12.9 km/h 92% 0.0 mm 0 W/m2
05:16 0.8 °C -0.4 °C 1014.6 hPa West 4.7 km/h 6.4 km/h 92% 0.0 mm 0 W/m2
05:21 0.8 °C -0.4 °C 1014.6 hPa West 4.7 km/h 6.4 km/h 92% 0.0 mm 0 W/m2
05:26 0.8 °C -0.4 °C 1014.6 hPa West 4.7 km/h 6.4 km/h 92% 0.0 mm 0 W/m2
05:31 0.7 °C -0.5 °C 1014.6 hPa West 3.2 km/h 6.4 km/h 92% 0.0 mm 0 W/m2
05:36 0.7 °C -0.5 °C 1014.6 hPa WNW 3.2 km/h 6.4 km/h 92% 0.0 mm 0 W/m2
05:41 0.7 °C -0.5 °C 1014.2 hPa WNW 4.7 km/h 6.4 km/h 92% 0.0 mm 0 W/m2
05:46 0.7 °C -0.6 °C 1014.2 hPa WNW 1.4 km/h 6.4 km/h 91% 0.0 mm 0 W/m2
05:51 0.7 °C -0.6 °C 1014.2 hPa West 3.2 km/h 4.8 km/h 91% 0.0 mm 0 W/m2
05:56 0.7 °C -0.6 °C 1014.2 hPa West 3.2 km/h 6.4 km/h 91% 0.0 mm 0 W/m2
06:01 0.7 °C -0.6 °C 1014.2 hPa West 3.2 km/h 11.3 km/h 91% 0.0 mm 0 W/m2
06:06 0.7 °C -0.6 °C 1014.2 hPa West 3.2 km/h 4.8 km/h 91% 0.0 mm 0 W/m2
06:11 0.7 °C -0.6 °C 1014.2 hPa WSW 3.2 km/h 6.4 km/h 91% 0.0 mm 0 W/m2
06:16 0.7 °C -0.6 °C 1014.2 hPa WSW 1.4 km/h 4.8 km/h 91% 0.0 mm 0 W/m2
06:21 0.7 °C -0.6 °C 1014.2 hPa West 1.4 km/h 4.8 km/h 91% 0.0 mm 0 W/m2
06:26 0.6 °C -0.7 °C 1014.2 hPa Calm   1.6 km/h 91% 0.0 mm 0 W/m2
06:31 0.5 °C -0.8 °C 1014.2 hPa Calm     91% 0.0 mm 0 W/m2
06:36 0.4 °C -0.9 °C 1014.2 hPa Calm   1.6 km/h 91% 0.0 mm 0 W/m2
06:41 0.4 °C -0.9 °C 1014.2 hPa Calm     91% 0.0 mm 0 W/m2
06:46 0.3 °C -0.8 °C 1014.2 hPa Calm   1.6 km/h 92% 0.0 mm 0 W/m2
06:51 0.3 °C -0.8 °C 1014.2 hPa Calm     92% 0.0 mm 0 W/m2
06:56 0.3 °C -0.8 °C 1014.2 hPa Calm   1.6 km/h 92% 0.0 mm 0 W/m2
07:01 0.2 °C -0.8 °C 1014.2 hPa Calm     93% 0.0 mm 0 W/m2
07:06 0.2 °C -0.8 °C 1014.2 hPa Calm     93% 0.0 mm 0 W/m2
07:11 0.1 °C -0.9 °C 1014.2 hPa Calm     93% 0.0 mm 0 W/m2
07:16 0.1 °C -0.9 °C 1014.2 hPa Calm     93% 0.0 mm 0 W/m2
07:21 0.1 °C -0.9 °C 1014.2 hPa Calm   1.6 km/h 93% 0.0 mm 0 W/m2
07:26 0.1 °C -0.8 °C 1014.2 hPa West 1.4 km/h 1.6 km/h 94% 0.0 mm 0 W/m2
07:31 0.1 °C -0.8 °C 1014.2 hPa West 1.4 km/h 1.6 km/h 94% 0.0 mm 0 W/m2
07:36 0.1 °C -0.8 °C 1014.2 hPa Calm   1.6 km/h 94% 0.0 mm 0 W/m2
07:41 0.1 °C -0.8 °C 1014.2 hPa Calm     94% 0.0 mm 0 W/m2
07:46 0.2 °C -0.7 °C 1014.2 hPa SW 1.4 km/h 1.6 km/h 94% 0.0 mm 0 W/m2
07:51 0.3 °C -0.6 °C 1014.6 hPa WSW 3.2 km/h 3.2 km/h 94% 0.0 mm 0 W/m2
07:56 0.4 °C -0.3 °C 1014.2 hPa West 1.4 km/h 4.8 km/h 95% 0.0 mm 0 W/m2
08:01 0.6 °C -0.1 °C 1014.2 hPa West 4.7 km/h 6.4 km/h 95% 0.0 mm 0 W/m2
08:06 0.7 °C 0 °C 1014.2 hPa West 1.4 km/h 3.2 km/h 95% 0.0 mm 0 W/m2
08:11 0.8 °C -0.1 °C 1014.2 hPa West 1.4 km/h 4.8 km/h 94% 0.0 mm 0 W/m2
08:16 0.9 °C 0 °C 1014.2 hPa West 3.2 km/h 6.4 km/h 94% 0.0 mm 0 W/m2
08:21 1 °C 0.1 °C 1014.2 hPa West 1.4 km/h 3.2 km/h 94% 0.0 mm 0 W/m2
08:26 1 °C 0 °C 1014.2 hPa WSW 1.4 km/h 4.8 km/h 93% 0.0 mm 0 W/m2
Juneau County Weather
Compliments of Weather Underground - 2 mb